Moby Aki — IBVV — position and weather

sailwx.info

Track history (hours):
 
Tides and Currents Weather Stations Pressure Air Temp Water Temp Dewpoint Dewpoint Depression Visibility Wind Speed Wind Dir Waves Ship Positions

Moby Aki

Last reported at 2016-May-24 11:33 UTC. Time now 2016-May-24 11:44 UTC.
Position N 43°33' E 010°18'.

Length 175 m; draft 6.9 m.

Type: Passenger vessel. MMSI: 247132400.

Date/timePositionNaut miles runAvg speedWind from/ knotsBaromVisibWave heightAir tempDewpointWater temp
2016-May-24 11:33N 43°33' E 010°18'0 0.0
2016-May-24 10:33N 43°33' E 010°18'0 0.0
2016-May-24 09:33N 43°33' E 010°18'0 0.0
2016-May-24 08:33N 43°33' E 010°18'0 0.0
2016-May-24 07:33N 43°33' E 010°18'0 0.0
2016-May-24 06:33N 43°33' E 010°18'0 0.0
2016-May-24 05:33N 43°33' E 010°18'0 0.0
2016-May-24 04:34N 43°33' E 010°18'1413.7
2016-May-24 03:34N 43°24' E 010°04'2322.9
2016-May-24 02:34N 43°10' E 009°39'88 3.7
2016-May-23 02:33N 41°42' E 009°43'2421.9
2016-May-23 01:27N 42°06' E 009°43'1921.7
2016-May-23 00:33N 42°25' E 009°49'2221.8
2016-May-22 23:34N 42°46' E 009°55'2221.8
2016-May-22 22:34N 43°07' E 010°03'2323.1
2016-May-22 21:33N 43°29' E 010°12'6 5.5
2016-May-22 20:32N 43°33' E 010°18'0 0.0
2016-May-22 19:33N 43°33' E 010°18'4 3.7
2016-May-22 18:33N 43°30' E 010°15'2525.0
2016-May-22 17:34N 43°06' E 010°06'2726.6
2016-May-22 16:34N 42°40' E 009°59'2726.8
2016-May-22 15:34N 42°13' E 009°55'2726.6
2016-May-22 14:34N 41°47' E 009°50'2626.3
2016-May-22 13:34N 41°21' E 009°46'2525.1
2016-May-22 12:34N 40°57' E 009°38'5 5.2
2016-May-22 11:31N 40°55' E 009°31'0 0.0
2016-May-22 10:25N 40°55' E 009°31'35 4.8
2016-May-22 03:07N 41°30' E 009°43'4522.1
2016-May-22 01:05N 42°15' E 009°44'3321.8
2016-May-21 23:33N 42°47' E 009°55'2221.5
2016-May-21 22:33N 43°08' E 010°02'2121.4
2016-May-21 21:34N 43°28' E 010°12'7 6.8
2016-May-21 20:33N 43°33' E 010°18'0 0.0
2016-May-21 19:33N 43°33' E 010°18'5 5.4
2016-May-21 18:34N 43°29' E 010°13'2626.2
2016-May-21 17:34N 43°03' E 010°05'2626.1
2016-May-21 16:33N 42°38' E 009°58'6 0.4
2016-May-20 23:06N 42°41' E 009°52'1221.7
2016-May-20 22:33N 42°53' E 009°56'2221.8
2016-May-20 21:34N 43°14' E 010°04'2020.2
2016-May-20 20:33N 43°32' E 010°16'2 2.1
2016-May-20 19:33N 43°33' E 010°18'0 0.0
2016-May-20 18:30N 43°33' E 010°18'0 0.0
2016-May-20 17:33N 43°33' E 010°18'0 0.0
2016-May-20 16:29N 43°33' E 010°18'0 0.0
2016-May-20 15:32N 43°33' E 010°18'0 0.0
2016-May-20 14:32N 43°33' E 010°18'0 0.0
2016-May-20 13:31N 43°33' E 010°18'0 0.0
2016-May-20 12:31N 43°33' E 010°18'0 0.0
2016-May-20 11:32N 43°33' E 010°18'0 0.0
2016-May-20 10:32N 43°33' E 010°18'0 0.0
2016-May-20 09:31N 43°33' E 010°18'0 0.0
2016-May-20 08:31N 43°33' E 010°18'0 0.0
2016-May-20 07:31N 43°33' E 010°18'0 0.0
2016-May-20 06:31N 43°33' E 010°18'0 0.0
2016-May-20 05:31N 43°33' E 010°18'0 0.1
2016-May-20 04:33N 43°33' E 010°18'1313.3
2016-May-20 03:34N 43°21' E 010°09'4921.0
2016-May-20 01:13N 42°34' E 009°51'26 0.9
2016-May-18 22:05N 42°59' E 009°59'1121.2
2016-May-18 21:33N 43°10' E 010°03'2121.2
2016-May-18 20:34N 43°30' E 010°12'5 5.3
2016-May-18 19:32N 43°33' E 010°18'0 0.0
2016-May-18 18:32N 43°33' E 010°18'0 0.0
2016-May-18 17:32N 43°33' E 010°18'0 0.0
2016-May-18 16:32N 43°33' E 010°18'0 0.0
2016-May-18 15:28N 43°33' E 010°18'0 0.0
2016-May-18 14:31N 43°33' E 010°18'0 0.0
2016-May-18 13:31N 43°33' E 010°18'0 0.0
2016-May-18 12:31N 43°33' E 010°18'0 0.0
2016-May-18 11:31N 43°33' E 010°18'0 0.0
2016-May-18 10:31N 43°33' E 010°18'0 0.0
2016-May-18 09:31N 43°33' E 010°18'0 0.0
2016-May-18 08:31N 43°33' E 010°18'0 0.0
2016-May-18 07:31N 43°33' E 010°18'0 0.0
2016-May-18 06:33N 43°33' E 010°18'0 0.0
2016-May-18 05:33N 43°33' E 010°18'0 0.0
2016-May-18 04:33N 43°33' E 010°18'1211.7
2016-May-18 03:33N 43°23' E 010°11'2120.6
2016-May-18 02:33N 43°03' E 010°05'6 0.2
2016-May-16 22:26N 42°58' E 009°60'1922.1
2016-May-16 21:34N 43°17' E 010°07'1817.5
2016-May-16 20:33N 43°33' E 010°17'1 0.5
2016-May-16 19:33N 43°33' E 010°18'0 0.0
2016-May-16 18:32N 43°33' E 010°18'0 0.0
2016-May-16 17:32N 43°33' E 010°18'0 0.0
2016-May-16 16:32N 43°33' E 010°18'0 0.0
2016-May-16 15:32N 43°33' E 010°18'0 0.0
2016-May-16 14:31N 43°33' E 010°18'0 0.0
2016-May-16 13:31N 43°33' E 010°18'0 0.0
2016-May-16 12:31N 43°33' E 010°18'0 0.0
2016-May-16 11:31N 43°33' E 010°18'0 0.0
2016-May-16 10:31N 43°33' E 010°18'0 0.0
2016-May-16 09:31N 43°33' E 010°18'0 0.0
2016-May-16 08:32N 43°33' E 010°18'0 0.0
2016-May-16 07:22N 43°33' E 010°18'0 0.0
2016-May-16 06:31N 43°33' E 010°18'0 0.0
2016-May-16 05:31N 43°33' E 010°18'0 0.0
2016-May-16 04:33N 43°33' E 010°18'3 0.1
2016-May-15 06:24N 43°32' E 010°14'3 3.5
2016-May-15 05:33N 43°33' E 010°18'0 0.0
2016-May-15 04:33N 43°33' E 010°18'  
Track history (hours):
 
Tides and Currents Weather Stations Pressure Air Temp Water Temp Dewpoint Dewpoint Depression Visibility Wind Speed Wind Dir Waves Ship Positions

Moby Aki

Last reported at 2016-May-24 11:33 UTC. Time now 2016-May-24 11:44 UTC.
Position N 43°33' E 010°18'.

Length 175 m; draft 6.9 m.

Type: Passenger vessel. MMSI: 247132400.

Date/timePositionNaut miles runAvg speedWind from/ knotsBaromVisibWave heightAir tempDewpointWater temp
2016-May-24 11:33N 43°33' E 010°18'0 0.0
2016-May-24 10:33N 43°33' E 010°18'0 0.0
2016-May-24 09:33N 43°33' E 010°18'0 0.0
2016-May-24 08:33N 43°33' E 010°18'0 0.0
2016-May-24 07:33N 43°33' E 010°18'0 0.0
2016-May-24 06:33N 43°33' E 010°18'0 0.0
2016-May-24 05:33N 43°33' E 010°18'0 0.0
2016-May-24 04:34N 43°33' E 010°18'1413.7
2016-May-24 03:34N 43°24' E 010°04'2322.9
2016-May-24 02:34N 43°10' E 009°39'88 3.7
2016-May-23 02:33N 41°42' E 009°43'2421.9
2016-May-23 01:27N 42°06' E 009°43'1921.7
2016-May-23 00:33N 42°25' E 009°49'2221.8
2016-May-22 23:34N 42°46' E 009°55'2221.8
2016-May-22 22:34N 43°07' E 010°03'2323.1
2016-May-22 21:33N 43°29' E 010°12'6 5.5
2016-May-22 20:32N 43°33' E 010°18'0 0.0
2016-May-22 19:33N 43°33' E 010°18'4 3.7
2016-May-22 18:33N 43°30' E 010°15'2525.0
2016-May-22 17:34N 43°06' E 010°06'2726.6
2016-May-22 16:34N 42°40' E 009°59'2726.8
2016-May-22 15:34N 42°13' E 009°55'2726.6
2016-May-22 14:34N 41°47' E 009°50'2626.3
2016-May-22 13:34N 41°21' E 009°46'2525.1
2016-May-22 12:34N 40°57' E 009°38'5 5.2
2016-May-22 11:31N 40°55' E 009°31'0 0.0
2016-May-22 10:25N 40°55' E 009°31'35 4.8
2016-May-22 03:07N 41°30' E 009°43'4522.1
2016-May-22 01:05N 42°15' E 009°44'3321.8
2016-May-21 23:33N 42°47' E 009°55'2221.5
2016-May-21 22:33N 43°08' E 010°02'2121.4
2016-May-21 21:34N 43°28' E 010°12'7 6.8
2016-May-21 20:33N 43°33' E 010°18'0 0.0
2016-May-21 19:33N 43°33' E 010°18'5 5.4
2016-May-21 18:34N 43°29' E 010°13'2626.2
2016-May-21 17:34N 43°03' E 010°05'2626.1
2016-May-21 16:33N 42°38' E 009°58'6 0.4
2016-May-20 23:06N 42°41' E 009°52'1221.7
2016-May-20 22:33N 42°53' E 009°56'2221.8
2016-May-20 21:34N 43°14' E 010°04'2020.2
2016-May-20 20:33N 43°32' E 010°16'2 2.1
2016-May-20 19:33N 43°33' E 010°18'0 0.0
2016-May-20 18:30N 43°33' E 010°18'0 0.0
2016-May-20 17:33N 43°33' E 010°18'0 0.0
2016-May-20 16:29N 43°33' E 010°18'0 0.0
2016-May-20 15:32N 43°33' E 010°18'0 0.0
2016-May-20 14:32N 43°33' E 010°18'0 0.0
2016-May-20 13:31N 43°33' E 010°18'0 0.0
2016-May-20 12:31N 43°33' E 010°18'0 0.0
2016-May-20 11:32N 43°33' E 010°18'0 0.0
2016-May-20 10:32N 43°33' E 010°18'0 0.0
2016-May-20 09:31N 43°33' E 010°18'0 0.0
2016-May-20 08:31N 43°33' E 010°18'0 0.0
2016-May-20 07:31N 43°33' E 010°18'0 0.0
2016-May-20 06:31N 43°33' E 010°18'0 0.0
2016-May-20 05:31N 43°33' E 010°18'0 0.1
2016-May-20 04:33N 43°33' E 010°18'1313.3
2016-May-20 03:34N 43°21' E 010°09'4921.0
2016-May-20 01:13N 42°34' E 009°51'26 0.9
2016-May-18 22:05N 42°59' E 009°59'1121.2
2016-May-18 21:33N 43°10' E 010°03'2121.2
2016-May-18 20:34N 43°30' E 010°12'5 5.3
2016-May-18 19:32N 43°33' E 010°18'0 0.0
2016-May-18 18:32N 43°33' E 010°18'0 0.0
2016-May-18 17:32N 43°33' E 010°18'0 0.0
2016-May-18 16:32N 43°33' E 010°18'0 0.0
2016-May-18 15:28N 43°33' E 010°18'0 0.0
2016-May-18 14:31N 43°33' E 010°18'0 0.0
2016-May-18 13:31N 43°33' E 010°18'0 0.0
2016-May-18 12:31N 43°33' E 010°18'0 0.0
2016-May-18 11:31N 43°33' E 010°18'0 0.0
2016-May-18 10:31N 43°33' E 010°18'0 0.0
2016-May-18 09:31N 43°33' E 010°18'0 0.0
2016-May-18 08:31N 43°33' E 010°18'0 0.0
2016-May-18 07:31N 43°33' E 010°18'0 0.0
2016-May-18 06:33N 43°33' E 010°18'0 0.0
2016-May-18 05:33N 43°33' E 010°18'0 0.0
2016-May-18 04:33N 43°33' E 010°18'1211.7
2016-May-18 03:33N 43°23' E 010°11'2120.6
2016-May-18 02:33N 43°03' E 010°05'6 0.2
2016-May-16 22:26N 42°58' E 009°60'1922.1
2016-May-16 21:34N 43°17' E 010°07'1817.5
2016-May-16 20:33N 43°33' E 010°17'1 0.5
2016-May-16 19:33N 43°33' E 010°18'0 0.0
2016-May-16 18:32N 43°33' E 010°18'0 0.0
2016-May-16 17:32N 43°33' E 010°18'0 0.0
2016-May-16 16:32N 43°33' E 010°18'0 0.0
2016-May-16 15:32N 43°33' E 010°18'0 0.0
2016-May-16 14:31N 43°33' E 010°18'0 0.0
2016-May-16 13:31N 43°33' E 010°18'0 0.0
2016-May-16 12:31N 43°33' E 010°18'0 0.0
2016-May-16 11:31N 43°33' E 010°18'0 0.0
2016-May-16 10:31N 43°33' E 010°18'0 0.0
2016-May-16 09:31N 43°33' E 010°18'0 0.0
2016-May-16 08:32N 43°33' E 010°18'0 0.0
2016-May-16 07:22N 43°33' E 010°18'0 0.0
2016-May-16 06:31N 43°33' E 010°18'0 0.0
2016-May-16 05:31N 43°33' E 010°18'0 0.0
2016-May-16 04:33N 43°33' E 010°18'3 0.1
2016-May-15 06:24N 43°32' E 010°14'3 3.5
2016-May-15 05:33N 43°33' E 010°18'0 0.0
2016-May-15 04:33N 43°33' E 010°18'  

Dump ship's entire track history